sensor_id;sensor_type;location;lat;lon;timestamp;P1;durP1;ratioP1;P2;durP2;ratioP2
5521;SDS011;2783;48.730;8.006;2022-07-29T00:00:42;6.13;;;2.45;;
5521;SDS011;2783;48.730;8.006;2022-07-29T00:03:12;4.00;;;2.63;;
5521;SDS011;2783;48.730;8.006;2022-07-29T00:05:38;3.95;;;2.33;;
5521;SDS011;2783;48.730;8.006;2022-07-29T00:08:04;4.80;;;2.47;;
5521;SDS011;2783;48.730;8.006;2022-07-29T00:10:30;5.00;;;2.45;;
5521;SDS011;2783;48.730;8.006;2022-07-29T00:12:56;3.63;;;2.65;;
5521;SDS011;2783;48.730;8.006;2022-07-29T00:15:21;5.38;;;2.90;;
5521;SDS011;2783;48.730;8.006;2022-07-29T00:17:47;6.22;;;2.90;;
5521;SDS011;2783;48.730;8.006;2022-07-29T00:20:12;5.10;;;2.65;;
5521;SDS011;2783;48.730;8.006;2022-07-29T00:22:38;4.45;;;2.50;;
5521;SDS011;2783;48.730;8.006;2022-07-29T00:25:04;4.82;;;2.83;;
5521;SDS011;2783;48.730;8.006;2022-07-29T00:27:30;4.20;;;2.70;;
5521;SDS011;2783;48.730;8.006;2022-07-29T00:29:56;4.78;;;2.55;;
5521;SDS011;2783;48.730;8.006;2022-07-29T00:32:21;3.55;;;2.80;;
5521;SDS011;2783;48.730;8.006;2022-07-29T00:34:47;4.63;;;2.53;;
5521;SDS011;2783;48.730;8.006;2022-07-29T00:37:31;5.43;;;3.20;;
5521;SDS011;2783;48.730;8.006;2022-07-29T00:39:56;5.07;;;3.42;;
5521;SDS011;2783;48.730;8.006;2022-07-29T00:42:22;5.60;;;2.85;;
5521;SDS011;2783;48.730;8.006;2022-07-29T00:44:47;5.50;;;3.20;;
5521;SDS011;2783;48.730;8.006;2022-07-29T00:47:13;4.38;;;2.72;;
5521;SDS011;2783;48.730;8.006;2022-07-29T00:49:39;5.00;;;2.85;;
5521;SDS011;2783;48.730;8.006;2022-07-29T00:52:05;6.30;;;3.78;;
5521;SDS011;2783;48.730;8.006;2022-07-29T00:54:33;4.43;;;2.92;;
5521;SDS011;2783;48.730;8.006;2022-07-29T00:56:59;6.72;;;3.33;;
5521;SDS011;2783;48.730;8.006;2022-07-29T00:59:25;5.80;;;3.10;;
5521;SDS011;2783;48.730;8.006;2022-07-29T01:01:52;4.20;;;2.90;;
5521;SDS011;2783;48.730;8.006;2022-07-29T01:04:18;5.47;;;2.85;;
5521;SDS011;2783;48.730;8.006;2022-07-29T01:06:45;6.78;;;2.70;;
5521;SDS011;2783;48.730;8.006;2022-07-29T01:09:10;4.78;;;2.65;;
5521;SDS011;2783;48.730;8.006;2022-07-29T01:11:37;5.85;;;3.00;;
5521;SDS011;2783;48.730;8.006;2022-07-29T01:14:03;5.47;;;2.90;;
5521;SDS011;2783;48.730;8.006;2022-07-29T01:16:32;4.30;;;3.15;;
5521;SDS011;2783;48.730;8.006;2022-07-29T01:24:47;6.30;;;2.83;;
5521;SDS011;2783;48.730;8.006;2022-07-29T01:27:32;5.25;;;2.83;;
5521;SDS011;2783;48.730;8.006;2022-07-29T01:32:35;5.45;;;2.80;;
5521;SDS011;2783;48.730;8.006;2022-07-29T01:35:08;5.90;;;3.35;;
5521;SDS011;2783;48.730;8.006;2022-07-29T01:37:45;4.88;;;2.97;;
5521;SDS011;2783;48.730;8.006;2022-07-29T01:40:25;6.05;;;3.20;;
5521;SDS011;2783;48.730;8.006;2022-07-29T01:42:56;5.40;;;3.28;;
5521;SDS011;2783;48.730;8.006;2022-07-29T01:45:30;5.57;;;3.13;;
5521;SDS011;2783;48.730;8.006;2022-07-29T01:48:29;4.25;;;3.05;;
5521;SDS011;2783;48.730;8.006;2022-07-29T01:51:02;5.40;;;3.72;;
5521;SDS011;2783;48.730;8.006;2022-07-29T01:53:37;6.90;;;3.15;;
5521;SDS011;2783;48.730;8.006;2022-07-29T01:56:08;5.82;;;3.30;;
5521;SDS011;2783;48.730;8.006;2022-07-29T01:58:35;4.63;;;3.13;;
5521;SDS011;2783;48.730;8.006;2022-07-29T02:01:04;4.85;;;2.75;;
5521;SDS011;2783;48.730;8.006;2022-07-29T02:03:31;5.93;;;2.90;;
5521;SDS011;2783;48.730;8.006;2022-07-29T02:05:58;5.45;;;3.30;;
5521;SDS011;2783;48.730;8.006;2022-07-29T02:08:26;5.25;;;3.30;;
5521;SDS011;2783;48.730;8.006;2022-07-29T02:10:54;6.15;;;2.83;;
5521;SDS011;2783;48.730;8.006;2022-07-29T02:13:20;5.43;;;3.05;;
5521;SDS011;2783;48.730;8.006;2022-07-29T02:15:48;7.28;;;3.50;;
5521;SDS011;2783;48.730;8.006;2022-07-29T02:18:17;5.28;;;3.67;;
5521;SDS011;2783;48.730;8.006;2022-07-29T02:20:47;5.68;;;3.30;;
5521;SDS011;2783;48.730;8.006;2022-07-29T02:23:14;7.22;;;4.00;;
5521;SDS011;2783;48.730;8.006;2022-07-29T02:25:44;5.25;;;3.03;;
5521;SDS011;2783;48.730;8.006;2022-07-29T02:28:12;7.50;;;3.30;;
5521;SDS011;2783;48.730;8.006;2022-07-29T02:30:40;6.60;;;3.28;;
5521;SDS011;2783;48.730;8.006;2022-07-29T02:33:07;4.93;;;3.25;;
5521;SDS011;2783;48.730;8.006;2022-07-29T02:35:34;6.47;;;3.72;;
5521;SDS011;2783;48.730;8.006;2022-07-29T02:38:01;7.43;;;4.13;;
5521;SDS011;2783;48.730;8.006;2022-07-29T02:40:46;5.45;;;3.53;;
5521;SDS011;2783;48.730;8.006;2022-07-29T02:43:15;4.57;;;3.00;;
5521;SDS011;2783;48.730;8.006;2022-07-29T02:45:43;4.40;;;3.13;;
5521;SDS011;2783;48.730;8.006;2022-07-29T02:48:13;7.10;;;3.83;;
5521;SDS011;2783;48.730;8.006;2022-07-29T02:50:47;4.50;;;3.03;;
5521;SDS011;2783;48.730;8.006;2022-07-29T02:53:20;5.43;;;3.00;;
5521;SDS011;2783;48.730;8.006;2022-07-29T02:55:56;4.70;;;2.95;;
5521;SDS011;2783;48.730;8.006;2022-07-29T02:58:27;5.90;;;3.25;;
5521;SDS011;2783;48.730;8.006;2022-07-29T03:01:04;5.72;;;3.70;;
5521;SDS011;2783;48.730;8.006;2022-07-29T03:03:41;6.45;;;3.90;;
5521;SDS011;2783;48.730;8.006;2022-07-29T03:06:09;6.28;;;3.53;;
5521;SDS011;2783;48.730;8.006;2022-07-29T03:08:38;7.78;;;3.70;;
5521;SDS011;2783;48.730;8.006;2022-07-29T03:11:04;7.80;;;3.90;;
5521;SDS011;2783;48.730;8.006;2022-07-29T03:13:32;5.57;;;3.67;;
5521;SDS011;2783;48.730;8.006;2022-07-29T03:15:58;8.88;;;4.15;;
5521;SDS011;2783;48.730;8.006;2022-07-29T03:18:24;6.47;;;3.55;;
5521;SDS011;2783;48.730;8.006;2022-07-29T03:20:50;9.40;;;4.10;;
5521;SDS011;2783;48.730;8.006;2022-07-29T03:23:20;6.43;;;3.65;;
5521;SDS011;2783;48.730;8.006;2022-07-29T03:25:47;5.10;;;3.53;;
5521;SDS011;2783;48.730;8.006;2022-07-29T03:28:14;7.88;;;4.57;;
5521;SDS011;2783;48.730;8.006;2022-07-29T03:30:40;5.82;;;3.95;;
5521;SDS011;2783;48.730;8.006;2022-07-29T03:33:05;6.13;;;3.90;;
5521;SDS011;2783;48.730;8.006;2022-07-29T03:35:31;6.63;;;4.53;;
5521;SDS011;2783;48.730;8.006;2022-07-29T03:37:56;18.45;;;7.15;;
5521;SDS011;2783;48.730;8.006;2022-07-29T03:40:25;6.65;;;4.72;;
5521;SDS011;2783;48.730;8.006;2022-07-29T03:42:56;21.35;;;5.70;;
5521;SDS011;2783;48.730;8.006;2022-07-29T03:45:23;7.35;;;4.72;;
5521;SDS011;2783;48.730;8.006;2022-07-29T03:47:52;7.00;;;4.55;;
5521;SDS011;2783;48.730;8.006;2022-07-29T03:50:22;6.80;;;4.57;;
5521;SDS011;2783;48.730;8.006;2022-07-29T03:52:47;6.60;;;4.57;;
5521;SDS011;2783;48.730;8.006;2022-07-29T03:55:14;8.80;;;4.70;;
5521;SDS011;2783;48.730;8.006;2022-07-29T03:57:40;6.55;;;4.53;;
5521;SDS011;2783;48.730;8.006;2022-07-29T04:00:08;5.28;;;3.85;;
5521;SDS011;2783;48.730;8.006;2022-07-29T04:02:34;5.32;;;3.92;;
5521;SDS011;2783;48.730;8.006;2022-07-29T04:05:01;7.65;;;3.83;;
5521;SDS011;2783;48.730;8.006;2022-07-29T04:07:27;6.55;;;3.97;;
5521;SDS011;2783;48.730;8.006;2022-07-29T04:09:53;7.03;;;4.63;;
5521;SDS011;2783;48.730;8.006;2022-07-29T04:12:18;9.43;;;4.38;;
5521;SDS011;2783;48.730;8.006;2022-07-29T04:14:46;17.52;;;4.45;;
5521;SDS011;2783;48.730;8.006;2022-07-29T04:17:11;11.60;;;4.05;;
5521;SDS011;2783;48.730;8.006;2022-07-29T04:19:37;9.85;;;5.82;;
5521;SDS011;2783;48.730;8.006;2022-07-29T04:22:02;12.52;;;5.70;;
5521;SDS011;2783;48.730;8.006;2022-07-29T04:24:29;10.77;;;4.72;;
5521;SDS011;2783;48.730;8.006;2022-07-29T04:26:54;7.47;;;4.28;;
5521;SDS011;2783;48.730;8.006;2022-07-29T04:29:20;8.07;;;4.90;;
5521;SDS011;2783;48.730;8.006;2022-07-29T04:31:46;6.80;;;4.18;;
5521;SDS011;2783;48.730;8.006;2022-07-29T04:34:11;7.90;;;4.70;;
5521;SDS011;2783;48.730;8.006;2022-07-29T04:36:37;11.27;;;4.65;;
5521;SDS011;2783;48.730;8.006;2022-07-29T04:39:03;11.35;;;4.40;;
5521;SDS011;2783;48.730;8.006;2022-07-29T04:41:28;6.25;;;3.85;;
5521;SDS011;2783;48.730;8.006;2022-07-29T04:43:54;5.72;;;3.63;;
5521;SDS011;2783;48.730;8.006;2022-07-29T04:46:19;8.10;;;3.75;;
5521;SDS011;2783;48.730;8.006;2022-07-29T04:48:45;6.97;;;3.80;;
5521;SDS011;2783;48.730;8.006;2022-07-29T04:51:11;10.60;;;4.35;;
5521;SDS011;2783;48.730;8.006;2022-07-29T04:53:37;8.50;;;5.10;;
5521;SDS011;2783;48.730;8.006;2022-07-29T04:56:03;7.70;;;4.47;;
5521;SDS011;2783;48.730;8.006;2022-07-29T04:58:28;7.15;;;4.40;;
5521;SDS011;2783;48.730;8.006;2022-07-29T05:00:54;9.13;;;4.45;;
5521;SDS011;2783;48.730;8.006;2022-07-29T05:03:19;5.85;;;4.03;;
5521;SDS011;2783;48.730;8.006;2022-07-29T05:05:45;6.43;;;4.00;;
5521;SDS011;2783;48.730;8.006;2022-07-29T05:08:10;6.50;;;3.85;;
5521;SDS011;2783;48.730;8.006;2022-07-29T05:10:45;6.93;;;3.92;;
5521;SDS011;2783;48.730;8.006;2022-07-29T05:13:11;9.20;;;4.30;;
5521;SDS011;2783;48.730;8.006;2022-07-29T05:15:36;7.32;;;3.78;;
5521;SDS011;2783;48.730;8.006;2022-07-29T05:18:02;9.00;;;4.15;;
5521;SDS011;2783;48.730;8.006;2022-07-29T05:20:28;9.13;;;4.05;;
5521;SDS011;2783;48.730;8.006;2022-07-29T05:22:55;6.20;;;3.97;;
5521;SDS011;2783;48.730;8.006;2022-07-29T05:25:21;5.32;;;3.67;;
5521;SDS011;2783;48.730;8.006;2022-07-29T05:27:46;9.10;;;3.70;;
5521;SDS011;2783;48.730;8.006;2022-07-29T05:30:12;7.40;;;3.58;;
5521;SDS011;2783;48.730;8.006;2022-07-29T05:32:38;8.77;;;4.20;;
5521;SDS011;2783;48.730;8.006;2022-07-29T05:35:03;5.85;;;3.92;;
5521;SDS011;2783;48.730;8.006;2022-07-29T05:37:29;5.50;;;3.70;;
5521;SDS011;2783;48.730;8.006;2022-07-29T05:39:54;9.00;;;4.07;;
5521;SDS011;2783;48.730;8.006;2022-07-29T05:42:20;7.95;;;4.47;;
5521;SDS011;2783;48.730;8.006;2022-07-29T05:44:45;7.55;;;4.57;;
5521;SDS011;2783;48.730;8.006;2022-07-29T05:47:12;7.82;;;3.35;;
5521;SDS011;2783;48.730;8.006;2022-07-29T05:49:38;6.15;;;3.50;;
5521;SDS011;2783;48.730;8.006;2022-07-29T05:52:03;10.63;;;4.07;;
5521;SDS011;2783;48.730;8.006;2022-07-29T05:54:29;8.88;;;3.80;;
5521;SDS011;2783;48.730;8.006;2022-07-29T05:56:54;6.80;;;3.53;;
5521;SDS011;2783;48.730;8.006;2022-07-29T05:59:20;6.72;;;3.17;;
5521;SDS011;2783;48.730;8.006;2022-07-29T06:01:45;5.55;;;3.25;;
5521;SDS011;2783;48.730;8.006;2022-07-29T06:04:10;6.68;;;3.65;;
5521;SDS011;2783;48.730;8.006;2022-07-29T06:06:36;6.78;;;3.30;;
5521;SDS011;2783;48.730;8.006;2022-07-29T06:09:02;14.70;;;3.85;;
5521;SDS011;2783;48.730;8.006;2022-07-29T06:11:27;5.50;;;2.95;;
5521;SDS011;2783;48.730;8.006;2022-07-29T06:13:53;9.20;;;3.63;;
5521;SDS011;2783;48.730;8.006;2022-07-29T06:16:19;5.88;;;2.90;;
5521;SDS011;2783;48.730;8.006;2022-07-29T06:18:44;7.18;;;3.17;;
5521;SDS011;2783;48.730;8.006;2022-07-29T06:21:10;5.55;;;2.67;;
5521;SDS011;2783;48.730;8.006;2022-07-29T06:23:39;8.50;;;2.55;;
5521;SDS011;2783;48.730;8.006;2022-07-29T06:26:05;5.32;;;2.75;;
5521;SDS011;2783;48.730;8.006;2022-07-29T06:28:31;6.82;;;2.47;;
5521;SDS011;2783;48.730;8.006;2022-07-29T06:30:57;4.53;;;2.53;;
5521;SDS011;2783;48.730;8.006;2022-07-29T06:33:22;6.65;;;2.83;;
5521;SDS011;2783;48.730;8.006;2022-07-29T06:35:48;6.35;;;4.18;;
5521;SDS011;2783;48.730;8.006;2022-07-29T06:38:14;3.35;;;2.17;;
5521;SDS011;2783;48.730;8.006;2022-07-29T06:40:41;5.03;;;2.60;;
5521;SDS011;2783;48.730;8.006;2022-07-29T06:43:35;6.32;;;3.13;;
5521;SDS011;2783;48.730;8.006;2022-07-29T06:46:03;5.05;;;2.80;;
5521;SDS011;2783;48.730;8.006;2022-07-29T06:48:31;6.30;;;2.80;;
5521;SDS011;2783;48.730;8.006;2022-07-29T06:50:57;6.20;;;2.70;;
5521;SDS011;2783;48.730;8.006;2022-07-29T06:53:23;5.50;;;2.50;;
5521;SDS011;2783;48.730;8.006;2022-07-29T06:55:49;3.30;;;2.15;;
5521;SDS011;2783;48.730;8.006;2022-07-29T06:58:14;6.18;;;2.75;;
5521;SDS011;2783;48.730;8.006;2022-07-29T07:00:42;6.00;;;2.45;;
5521;SDS011;2783;48.730;8.006;2022-07-29T07:03:09;5.97;;;2.50;;
5521;SDS011;2783;48.730;8.006;2022-07-29T07:05:34;7.80;;;2.67;;
5521;SDS011;2783;48.730;8.006;2022-07-29T07:08:00;5.55;;;2.40;;
5521;SDS011;2783;48.730;8.006;2022-07-29T07:10:25;5.65;;;2.70;;
5521;SDS011;2783;48.730;8.006;2022-07-29T07:12:51;6.38;;;2.30;;
5521;SDS011;2783;48.730;8.006;2022-07-29T07:15:16;6.03;;;2.60;;
5521;SDS011;2783;48.730;8.006;2022-07-29T07:17:42;5.03;;;2.60;;
5521;SDS011;2783;48.730;8.006;2022-07-29T07:20:07;4.50;;;2.80;;
5521;SDS011;2783;48.730;8.006;2022-07-29T07:22:33;5.55;;;2.63;;
5521;SDS011;2783;48.730;8.006;2022-07-29T07:24:59;3.97;;;2.53;;
5521;SDS011;2783;48.730;8.006;2022-07-29T07:27:25;5.88;;;3.03;;
5521;SDS011;2783;48.730;8.006;2022-07-29T07:29:51;5.45;;;3.08;;
5521;SDS011;2783;48.730;8.006;2022-07-29T07:32:16;4.85;;;3.00;;
5521;SDS011;2783;48.730;8.006;2022-07-29T07:34:42;6.82;;;3.08;;
5521;SDS011;2783;48.730;8.006;2022-07-29T07:37:08;6.45;;;2.40;;
5521;SDS011;2783;48.730;8.006;2022-07-29T07:39:34;8.13;;;3.30;;
5521;SDS011;2783;48.730;8.006;2022-07-29T07:41:59;5.18;;;2.60;;
5521;SDS011;2783;48.730;8.006;2022-07-29T07:44:25;7.15;;;3.35;;
5521;SDS011;2783;48.730;8.006;2022-07-29T07:46:50;6.25;;;3.08;;
5521;SDS011;2783;48.730;8.006;2022-07-29T07:49:16;6.82;;;3.00;;
5521;SDS011;2783;48.730;8.006;2022-07-29T07:51:41;7.85;;;3.10;;
5521;SDS011;2783;48.730;8.006;2022-07-29T07:54:07;5.65;;;2.90;;
5521;SDS011;2783;48.730;8.006;2022-07-29T07:56:32;6.47;;;3.15;;
5521;SDS011;2783;48.730;8.006;2022-07-29T07:58:58;7.38;;;3.83;;
5521;SDS011;2783;48.730;8.006;2022-07-29T08:01:23;10.63;;;3.72;;
5521;SDS011;2783;48.730;8.006;2022-07-29T08:03:49;5.28;;;2.88;;
5521;SDS011;2783;48.730;8.006;2022-07-29T08:06:15;6.68;;;2.92;;
5521;SDS011;2783;48.730;8.006;2022-07-29T08:08:41;5.03;;;3.00;;
5521;SDS011;2783;48.730;8.006;2022-07-29T08:11:06;4.95;;;2.95;;
5521;SDS011;2783;48.730;8.006;2022-07-29T08:13:32;8.40;;;4.38;;
5521;SDS011;2783;48.730;8.006;2022-07-29T08:15:58;7.00;;;3.70;;
5521;SDS011;2783;48.730;8.006;2022-07-29T08:18:36;8.80;;;3.40;;
5521;SDS011;2783;48.730;8.006;2022-07-29T08:21:02;5.68;;;2.90;;
5521;SDS011;2783;48.730;8.006;2022-07-29T08:23:28;7.57;;;2.45;;
5521;SDS011;2783;48.730;8.006;2022-07-29T08:26:03;4.22;;;2.50;;
5521;SDS011;2783;48.730;8.006;2022-07-29T08:28:29;4.55;;;2.78;;
5521;SDS011;2783;48.730;8.006;2022-07-29T08:30:54;4.30;;;2.50;;
5521;SDS011;2783;48.730;8.006;2022-07-29T08:33:20;4.55;;;2.88;;
5521;SDS011;2783;48.730;8.006;2022-07-29T08:35:45;5.80;;;2.67;;
5521;SDS011;2783;48.730;8.006;2022-07-29T08:38:11;3.65;;;2.53;;
5521;SDS011;2783;48.730;8.006;2022-07-29T08:40:36;6.18;;;2.95;;
5521;SDS011;2783;48.730;8.006;2022-07-29T08:43:05;6.40;;;2.80;;
5521;SDS011;2783;48.730;8.006;2022-07-29T08:45:45;4.40;;;2.22;;
5521;SDS011;2783;48.730;8.006;2022-07-29T08:48:16;4.43;;;2.88;;
5521;SDS011;2783;48.730;8.006;2022-07-29T08:50:46;6.88;;;2.90;;
5521;SDS011;2783;48.730;8.006;2022-07-29T08:53:14;4.95;;;2.70;;
5521;SDS011;2783;48.730;8.006;2022-07-29T08:55:44;4.65;;;2.30;;
5521;SDS011;2783;48.730;8.006;2022-07-29T08:58:11;5.10;;;2.92;;
5521;SDS011;2783;48.730;8.006;2022-07-29T09:00:41;5.00;;;2.60;;
5521;SDS011;2783;48.730;8.006;2022-07-29T09:03:09;4.25;;;3.10;;
5521;SDS011;2783;48.730;8.006;2022-07-29T09:05:42;6.75;;;2.60;;
5521;SDS011;2783;48.730;8.006;2022-07-29T09:08:10;5.18;;;2.70;;
5521;SDS011;2783;48.730;8.006;2022-07-29T09:10:35;5.43;;;2.50;;
5521;SDS011;2783;48.730;8.006;2022-07-29T09:13:01;3.30;;;2.58;;
5521;SDS011;2783;48.730;8.006;2022-07-29T09:15:27;6.13;;;2.60;;
5521;SDS011;2783;48.730;8.006;2022-07-29T09:17:53;4.07;;;2.05;;
5521;SDS011;2783;48.730;8.006;2022-07-29T09:20:20;7.03;;;2.22;;
5521;SDS011;2783;48.730;8.006;2022-07-29T09:22:47;6.30;;;2.50;;
5521;SDS011;2783;48.730;8.006;2022-07-29T09:25:14;4.20;;;2.05;;
5521;SDS011;2783;48.730;8.006;2022-07-29T09:28:04;6.63;;;2.58;;
5521;SDS011;2783;48.730;8.006;2022-07-29T09:30:49;5.55;;;2.30;;
5521;SDS011;2783;48.730;8.006;2022-07-29T09:33:20;6.60;;;2.85;;
5521;SDS011;2783;48.730;8.006;2022-07-29T09:35:46;4.70;;;2.55;;
5521;SDS011;2783;48.730;8.006;2022-07-29T09:38:24;5.88;;;2.58;;
5521;SDS011;2783;48.730;8.006;2022-07-29T09:40:56;5.20;;;2.90;;
5521;SDS011;2783;48.730;8.006;2022-07-29T09:43:22;3.85;;;2.40;;
5521;SDS011;2783;48.730;8.006;2022-07-29T09:45:48;6.75;;;2.33;;
5521;SDS011;2783;48.730;8.006;2022-07-29T09:48:14;10.15;;;2.38;;
5521;SDS011;2783;48.730;8.006;2022-07-29T09:50:43;10.60;;;3.03;;
5521;SDS011;2783;48.730;8.006;2022-07-29T09:53:10;4.13;;;2.05;;
5521;SDS011;2783;48.730;8.006;2022-07-29T09:55:51;5.05;;;2.30;;
5521;SDS011;2783;48.730;8.006;2022-07-29T09:58:18;6.60;;;2.65;;
5521;SDS011;2783;48.730;8.006;2022-07-29T10:00:46;5.25;;;2.70;;
5521;SDS011;2783;48.730;8.006;2022-07-29T10:03:12;4.90;;;2.55;;
5521;SDS011;2783;48.730;8.006;2022-07-29T10:05:38;5.75;;;2.63;;
5521;SDS011;2783;48.730;8.006;2022-07-29T10:08:04;6.20;;;2.40;;
5521;SDS011;2783;48.730;8.006;2022-07-29T10:13:00;3.60;;;2.22;;
5521;SDS011;2783;48.730;8.006;2022-07-29T10:15:31;4.82;;;2.83;;
5521;SDS011;2783;48.730;8.006;2022-07-29T10:17:58;5.20;;;1.77;;
5521;SDS011;2783;48.730;8.006;2022-07-29T10:20:25;5.78;;;1.73;;
5521;SDS011;2783;48.730;8.006;2022-07-29T10:22:52;6.63;;;1.70;;
5521;SDS011;2783;48.730;8.006;2022-07-29T10:25:18;6.68;;;1.80;;
5521;SDS011;2783;48.730;8.006;2022-07-29T10:27:44;3.90;;;1.50;;
5521;SDS011;2783;48.730;8.006;2022-07-29T10:30:11;3.38;;;1.30;;
5521;SDS011;2783;48.730;8.006;2022-07-29T10:32:39;3.10;;;1.40;;
5521;SDS011;2783;48.730;8.006;2022-07-29T10:43:37;2.65;;;1.30;;
5521;SDS011;2783;48.730;8.006;2022-07-29T10:48:33;2.72;;;0.80;;
5521;SDS011;2783;48.730;8.006;2022-07-29T10:51:00;2.38;;;1.02;;
5521;SDS011;2783;48.730;8.006;2022-07-29T10:56:27;2.92;;;1.38;;
5521;SDS011;2783;48.730;8.006;2022-07-29T11:01:51;2.78;;;0.90;;
5521;SDS011;2783;48.730;8.006;2022-07-29T11:05:03;2.75;;;1.15;;
5521;SDS011;2783;48.730;8.006;2022-07-29T11:07:08;2.67;;;1.20;;
5521;SDS011;2783;48.730;8.006;2022-07-29T11:09:34;1.52;;;1.00;;
5521;SDS011;2783;48.730;8.006;2022-07-29T11:12:00;2.85;;;1.23;;
5521;SDS011;2783;48.730;8.006;2022-07-29T11:15:08;2.42;;;0.95;;
5521;SDS011;2783;48.730;8.006;2022-07-29T11:17:17;3.28;;;0.90;;
5521;SDS011;2783;48.730;8.006;2022-07-29T11:19:42;4.95;;;1.30;;
5521;SDS011;2783;48.730;8.006;2022-07-29T11:22:09;2.22;;;1.10;;
5521;SDS011;2783;48.730;8.006;2022-07-29T11:24:36;2.88;;;1.20;;
5521;SDS011;2783;48.730;8.006;2022-07-29T11:27:06;2.45;;;1.13;;
5521;SDS011;2783;48.730;8.006;2022-07-29T11:32:36;3.45;;;1.65;;
5521;SDS011;2783;48.730;8.006;2022-07-29T11:35:11;1.77;;;1.23;;
5521;SDS011;2783;48.730;8.006;2022-07-29T11:43:54;6.22;;;1.52;;
5521;SDS011;2783;48.730;8.006;2022-07-29T11:49:18;2.30;;;1.40;;
5521;SDS011;2783;48.730;8.006;2022-07-29T11:51:52;6.28;;;1.55;;
5521;SDS011;2783;48.730;8.006;2022-07-29T11:54:23;5.50;;;1.60;;
5521;SDS011;2783;48.730;8.006;2022-07-29T11:56:53;1.67;;;1.23;;
5521;SDS011;2783;48.730;8.006;2022-07-29T11:59:19;4.25;;;1.52;;
5521;SDS011;2783;48.730;8.006;2022-07-29T12:01:55;5.40;;;1.30;;
5521;SDS011;2783;48.730;8.006;2022-07-29T12:04:22;3.00;;;1.20;;
5521;SDS011;2783;48.730;8.006;2022-07-29T12:06:52;3.92;;;1.40;;
5521;SDS011;2783;48.730;8.006;2022-07-29T12:09:18;3.15;;;1.42;;
5521;SDS011;2783;48.730;8.006;2022-07-29T12:11:45;2.50;;;1.05;;
5521;SDS011;2783;48.730;8.006;2022-07-29T12:14:26;2.65;;;1.30;;
5521;SDS011;2783;48.730;8.006;2022-07-29T12:16:55;5.45;;;1.27;;
5521;SDS011;2783;48.730;8.006;2022-07-29T12:19:21;1.80;;;1.10;;
5521;SDS011;2783;48.730;8.006;2022-07-29T12:21:48;5.22;;;1.50;;
5521;SDS011;2783;48.730;8.006;2022-07-29T12:24:14;5.60;;;1.30;;
5521;SDS011;2783;48.730;8.006;2022-07-29T12:26:50;2.22;;;1.20;;
5521;SDS011;2783;48.730;8.006;2022-07-29T12:29:21;6.63;;;1.30;;
5521;SDS011;2783;48.730;8.006;2022-07-29T12:31:50;2.90;;;1.40;;
5521;SDS011;2783;48.730;8.006;2022-07-29T12:34:19;4.73;;;1.10;;
5521;SDS011;2783;48.730;8.006;2022-07-29T12:36:46;3.78;;;1.30;;
5521;SDS011;2783;48.730;8.006;2022-07-29T12:39:12;3.35;;;1.20;;
5521;SDS011;2783;48.730;8.006;2022-07-29T12:41:37;1.88;;;1.08;;
5521;SDS011;2783;48.730;8.006;2022-07-29T12:44:03;7.22;;;1.45;;
5521;SDS011;2783;48.730;8.006;2022-07-29T12:46:29;4.05;;;1.20;;
5521;SDS011;2783;48.730;8.006;2022-07-29T12:48:54;2.70;;;1.38;;
5521;SDS011;2783;48.730;8.006;2022-07-29T12:51:35;2.08;;;1.08;;
5521;SDS011;2783;48.730;8.006;2022-07-29T12:54:03;2.55;;;1.20;;
5521;SDS011;2783;48.730;8.006;2022-07-29T12:56:31;2.95;;;0.90;;
5521;SDS011;2783;48.730;8.006;2022-07-29T12:58:57;13.25;;;4.13;;
5521;SDS011;2783;48.730;8.006;2022-07-29T13:01:22;1.88;;;1.23;;
5521;SDS011;2783;48.730;8.006;2022-07-29T13:03:55;2.90;;;1.30;;
5521;SDS011;2783;48.730;8.006;2022-07-29T13:06:38;2.25;;;1.20;;
5521;SDS011;2783;48.730;8.006;2022-07-29T13:09:15;3.13;;;1.48;;
5521;SDS011;2783;48.730;8.006;2022-07-29T13:11:48;9.52;;;1.75;;
5521;SDS011;2783;48.730;8.006;2022-07-29T13:14:34;1.92;;;1.02;;
5521;SDS011;2783;48.730;8.006;2022-07-29T13:17:07;4.45;;;1.27;;
5521;SDS011;2783;48.730;8.006;2022-07-29T13:19:34;3.65;;;1.13;;
5521;SDS011;2783;48.730;8.006;2022-07-29T13:22:07;6.20;;;1.27;;
5521;SDS011;2783;48.730;8.006;2022-07-29T13:24:59;2.17;;;1.15;;
5521;SDS011;2783;48.730;8.006;2022-07-29T13:27:27;4.13;;;1.35;;
5521;SDS011;2783;48.730;8.006;2022-07-29T13:29:55;2.28;;;1.10;;
5521;SDS011;2783;48.730;8.006;2022-07-29T13:32:23;2.53;;;1.40;;
5521;SDS011;2783;48.730;8.006;2022-07-29T13:34:50;2.78;;;1.17;;
5521;SDS011;2783;48.730;8.006;2022-07-29T13:37:15;3.75;;;1.10;;
5521;SDS011;2783;48.730;8.006;2022-07-29T13:39:42;2.88;;;1.23;;
5521;SDS011;2783;48.730;8.006;2022-07-29T13:42:08;1.90;;;1.17;;
5521;SDS011;2783;48.730;8.006;2022-07-29T13:44:33;2.08;;;0.90;;
5521;SDS011;2783;48.730;8.006;2022-07-29T13:46:59;4.30;;;1.27;;
5521;SDS011;2783;48.730;8.006;2022-07-29T13:49:25;5.45;;;1.20;;
5521;SDS011;2783;48.730;8.006;2022-07-29T13:51:51;1.70;;;1.30;;
5521;SDS011;2783;48.730;8.006;2022-07-29T13:54:16;3.88;;;1.30;;
5521;SDS011;2783;48.730;8.006;2022-07-29T13:56:42;2.63;;;1.13;;
5521;SDS011;2783;48.730;8.006;2022-07-29T13:59:07;2.00;;;1.10;;
5521;SDS011;2783;48.730;8.006;2022-07-29T14:01:34;4.93;;;1.30;;
5521;SDS011;2783;48.730;8.006;2022-07-29T14:04:00;2.10;;;1.10;;
5521;SDS011;2783;48.730;8.006;2022-07-29T14:06:25;3.75;;;1.40;;
5521;SDS011;2783;48.730;8.006;2022-07-29T14:08:51;5.63;;;1.80;;
5521;SDS011;2783;48.730;8.006;2022-07-29T14:11:16;4.55;;;1.77;;
5521;SDS011;2783;48.730;8.006;2022-07-29T14:13:42;6.05;;;1.90;;
5521;SDS011;2783;48.730;8.006;2022-07-29T14:16:07;3.45;;;1.63;;
5521;SDS011;2783;48.730;8.006;2022-07-29T14:18:33;3.63;;;1.83;;
5521;SDS011;2783;48.730;8.006;2022-07-29T14:20:58;4.90;;;1.73;;
5521;SDS011;2783;48.730;8.006;2022-07-29T14:23:24;2.25;;;1.42;;
5521;SDS011;2783;48.730;8.006;2022-07-29T14:25:49;7.80;;;2.10;;
5521;SDS011;2783;48.730;8.006;2022-07-29T14:28:15;4.10;;;1.75;;
5521;SDS011;2783;48.730;8.006;2022-07-29T14:30:40;3.58;;;2.10;;
5521;SDS011;2783;48.730;8.006;2022-07-29T14:33:06;5.13;;;1.90;;
5521;SDS011;2783;48.730;8.006;2022-07-29T14:35:31;2.45;;;1.58;;
5521;SDS011;2783;48.730;8.006;2022-07-29T14:37:57;3.33;;;2.00;;
5521;SDS011;2783;48.730;8.006;2022-07-29T14:40:23;3.40;;;1.98;;
5521;SDS011;2783;48.730;8.006;2022-07-29T14:42:48;5.22;;;2.00;;
5521;SDS011;2783;48.730;8.006;2022-07-29T14:45:14;4.30;;;2.10;;
5521;SDS011;2783;48.730;8.006;2022-07-29T14:47:39;3.67;;;2.08;;
5521;SDS011;2783;48.730;8.006;2022-07-29T14:50:05;2.95;;;1.95;;
5521;SDS011;2783;48.730;8.006;2022-07-29T14:52:32;4.53;;;2.28;;
5521;SDS011;2783;48.730;8.006;2022-07-29T14:54:57;4.25;;;1.85;;
5521;SDS011;2783;48.730;8.006;2022-07-29T14:57:23;3.17;;;1.70;;
5521;SDS011;2783;48.730;8.006;2022-07-29T14:59:48;6.85;;;2.03;;
5521;SDS011;2783;48.730;8.006;2022-07-29T15:02:15;6.30;;;2.33;;
5521;SDS011;2783;48.730;8.006;2022-07-29T15:04:41;3.47;;;1.70;;
5521;SDS011;2783;48.730;8.006;2022-07-29T15:07:06;4.93;;;1.80;;
5521;SDS011;2783;48.730;8.006;2022-07-29T15:09:32;4.40;;;1.95;;
5521;SDS011;2783;48.730;8.006;2022-07-29T15:11:57;2.72;;;1.80;;
5521;SDS011;2783;48.730;8.006;2022-07-29T15:14:22;4.10;;;1.60;;
5521;SDS011;2783;48.730;8.006;2022-07-29T15:16:48;3.47;;;1.67;;
5521;SDS011;2783;48.730;8.006;2022-07-29T15:19:13;2.53;;;1.65;;
5521;SDS011;2783;48.730;8.006;2022-07-29T15:21:39;4.32;;;1.58;;
5521;SDS011;2783;48.730;8.006;2022-07-29T15:24:04;2.60;;;1.50;;
5521;SDS011;2783;48.730;8.006;2022-07-29T15:26:32;2.50;;;1.73;;
5521;SDS011;2783;48.730;8.006;2022-07-29T15:28:57;4.47;;;1.73;;
5521;SDS011;2783;48.730;8.006;2022-07-29T15:31:23;2.95;;;1.55;;
5521;SDS011;2783;48.730;8.006;2022-07-29T15:33:48;10.48;;;2.30;;
5521;SDS011;2783;48.730;8.006;2022-07-29T15:36:13;2.65;;;1.52;;
5521;SDS011;2783;48.730;8.006;2022-07-29T15:38:39;5.40;;;2.08;;
5521;SDS011;2783;48.730;8.006;2022-07-29T15:41:05;3.85;;;2.25;;
5521;SDS011;2783;48.730;8.006;2022-07-29T15:43:31;3.95;;;1.55;;
5521;SDS011;2783;48.730;8.006;2022-07-29T15:45:57;2.33;;;1.55;;
5521;SDS011;2783;48.730;8.006;2022-07-29T15:48:41;3.22;;;1.95;;
5521;SDS011;2783;48.730;8.006;2022-07-29T15:51:06;5.07;;;1.50;;
5521;SDS011;2783;48.730;8.006;2022-07-29T15:53:32;2.83;;;1.42;;
5521;SDS011;2783;48.730;8.006;2022-07-29T15:55:57;1.88;;;1.27;;
5521;SDS011;2783;48.730;8.006;2022-07-29T15:58:23;4.78;;;1.77;;